Time;durP1;ratioP1;P1;durP2;ratioP2;P2;SDS_P1;SDS_P2;PMS_P1;PMS_P2;Temp;Humidity;BMP_temperature;BMP_pressure;BME280_temperature;BME280_humidity;BME280_pressure;Samples;Min_cycle;Max_cycle;Signal;HPM_P1;HPM_P2
2023/09/12 00:01:08;;;;;;;6.60;2.70;;;;;;;23.85;32.06;98393.94;5092604;28;20024;-45
2023/09/12 00:03:34;;;;;;;7.35;2.55;;;;;;;23.83;32.08;98398.00;5092562;28;20044;-45
2023/09/12 00:06:01;;;;;;;4.07;2.88;;;;;;;23.81;32.50;98397.50;5092461;28;20024;-45
2023/09/12 00:08:27;;;;;;;2.78;2.10;;;;;;;23.83;32.15;98392.66;5092436;28;20016;-45
2023/09/12 00:11:10;;;;;;;3.95;2.40;;;;;;;23.84;32.49;98391.53;5091012;28;20031;-45
2023/09/12 00:13:35;;;;;;;3.25;2.35;;;;;;;23.80;32.61;98396.69;5092430;28;20027;-45
2023/09/12 00:16:01;;;;;;;4.93;2.63;;;;;;;23.74;32.88;98387.13;5092327;28;20028;-45
2023/09/12 00:18:27;;;;;;;4.15;2.60;;;;;;;23.72;32.88;98389.28;5092050;28;20040;-45
2023/09/12 00:20:53;;;;;;;5.00;2.38;;;;;;;23.62;33.00;98382.22;5090956;28;20524;-45
2023/09/12 00:23:21;;;;;;;4.82;2.88;;;;;;;23.52;33.40;98383.19;5092035;28;20442;-45
2023/09/12 00:25:47;;;;;;;3.65;2.45;;;;;;;23.44;33.65;98380.38;5091178;28;20039;-45
2023/09/12 00:28:13;;;;;;;5.35;3.15;;;;;;;23.36;33.62;98370.34;5073968;28;20485;-45
2023/09/12 00:30:38;;;;;;;6.28;2.50;;;;;;;23.24;34.17;98371.59;5092085;28;20052;-45
2023/09/12 00:33:04;;;;;;;4.03;3.10;;;;;;;23.15;34.19;98357.25;5092051;28;20024;-45
2023/09/12 00:35:29;;;;;;;6.03;2.85;;;;;;;23.09;34.56;98358.44;5090709;28;20119;-45
2023/09/12 00:37:56;;;;;;;4.32;2.70;;;;;;;23.01;35.11;98348.34;5091011;28;20039;-45
2023/09/12 00:40:22;;;;;;;2.63;2.42;;;;;;;22.93;35.30;98336.41;5092041;28;20030;-45
2023/09/12 00:42:48;;;;;;;6.25;2.78;;;;;;;22.80;35.05;98337.94;5091980;28;20028;-45
2023/09/12 00:45:13;;;;;;;3.40;3.10;;;;;;;22.70;35.39;98335.41;5091989;28;20062;-45
2023/09/12 00:47:39;;;;;;;3.85;2.80;;;;;;;22.63;35.46;98329.59;5091954;28;20028;-45
2023/09/12 00:50:05;;;;;;;3.17;2.40;;;;;;;22.58;35.79;98329.66;5090483;28;20208;-45
2023/09/12 00:52:35;;;;;;;3.78;2.50;;;;;;;22.53;35.67;98325.19;5057124;28;20089;-45
2023/09/12 00:55:01;;;;;;;7.55;2.60;;;;;;;22.53;35.70;98325.97;5090500;28;20024;-45
2023/09/12 00:57:28;;;;;;;5.50;2.65;;;;;;;22.52;35.54;98323.59;5091817;28;20027;-45
2023/09/12 00:59:55;;;;;;;2.53;2.20;;;;;;;22.49;35.80;98319.59;5091948;28;20111;-45
2023/09/12 01:02:22;;;;;;;6.68;2.72;;;;;;;22.47;35.67;98315.63;5091691;28;20051;-45
2023/09/12 01:04:48;;;;;;;8.38;3.33;;;;;;;22.46;36.03;98311.38;5090538;28;20411;-45
2023/09/12 01:07:14;;;;;;;5.05;2.65;;;;;;;22.52;35.65;98319.03;5091671;28;20043;-45
2023/09/12 01:09:40;;;;;;;4.88;2.35;;;;;;;22.56;35.52;98313.09;5073906;28;20161;-45
2023/09/12 01:12:06;;;;;;;2.83;2.50;;;;;;;22.62;35.36;98323.47;5091644;28;20541;-45
2023/09/12 01:14:32;;;;;;;4.20;2.85;;;;;;;22.71;35.79;98326.28;5091683;28;20016;-45
2023/09/12 01:16:59;;;;;;;3.95;2.85;;;;;;;22.75;35.37;98321.94;5091535;28;20082;-45
2023/09/12 01:19:25;;;;;;;3.40;2.90;;;;;;;22.80;35.80;98327.25;5090076;28;20052;-45
2023/09/12 01:22:38;;;;;;;5.82;2.70;;;;;;;22.80;36.06;98337.13;5091549;28;20097;-45
2023/09/12 01:25:11;;;;;;;6.97;3.08;;;;;;;22.68;36.18;98332.22;5029228;28;20083;-45
2023/09/12 01:27:48;;;;;;;4.25;2.92;;;;;;;22.60;36.48;98341.69;5029287;28;20399;-45
2023/09/12 01:30:17;;;;;;;3.25;2.83;;;;;;;22.59;36.82;98337.41;5029102;28;20049;-45
2023/09/12 01:32:44;;;;;;;4.07;2.88;;;;;;;22.61;36.67;98327.22;5029113;28;20526;-45
2023/09/12 01:35:09;;;;;;;13.10;4.03;;;;;;;22.61;36.88;98329.88;5029676;28;20511;-45
2023/09/12 01:37:35;;;;;;;6.55;3.13;;;;;;;22.63;36.82;98318.91;5033189;28;20041;-45
2023/09/12 01:40:03;;;;;;;7.55;3.08;;;;;;;22.59;36.66;98313.31;5016258;28;20029;-45
2023/09/12 01:42:35;;;;;;;5.47;2.70;;;;;;;22.56;36.83;98310.44;5032779;28;20041;-45
2023/09/12 01:45:02;;;;;;;5.05;2.92;;;;;;;22.57;36.62;98312.03;5032752;28;20033;-45
2023/09/12 01:47:29;;;;;;;6.63;2.90;;;;;;;22.58;36.17;98329.66;5032766;28;20108;-45
2023/09/12 01:49:57;;;;;;;5.40;2.83;;;;;;;22.58;36.08;98335.81;5015944;28;20040;-45
2023/09/12 01:52:26;;;;;;;8.63;2.88;;;;;;;22.53;35.83;98335.88;5016027;28;20160;-45
2023/09/12 01:54:53;;;;;;;6.93;2.95;;;;;;;22.55;35.88;98331.03;5023013;28;20450;-45
2023/09/12 01:57:20;;;;;;;4.63;2.83;;;;;;;22.62;35.74;98328.03;5095209;28;20016;-45
2023/09/12 01:59:48;;;;;;;12.13;3.20;;;;;;;22.67;35.25;98339.44;5093897;28;20386;-45
2023/09/12 02:02:18;;;;;;;3.20;2.90;;;;;;;22.67;35.04;98328.72;5093609;28;20501;-45
2023/09/12 02:05:07;;;;;;;3.13;2.83;;;;;;;22.66;35.01;98326.38;5093517;28;20028;-45
2023/09/12 02:07:36;;;;;;;7.63;3.10;;;;;;;22.60;35.15;98325.63;5094031;28;20456;-45
2023/09/12 02:10:04;;;;;;;5.13;2.72;;;;;;;22.57;35.28;98328.09;5094645;28;20108;-45
2023/09/12 02:12:31;;;;;;;6.43;2.80;;;;;;;22.51;35.07;98332.69;5094620;28;20066;-45
2023/09/12 02:14:56;;;;;;;7.00;3.55;;;;;;;22.54;35.28;98327.56;5094601;28;20024;-45
2023/09/12 02:17:22;;;;;;;5.13;2.80;;;;;;;22.58;35.21;98326.97;5094544;28;20047;-45
2023/09/12 02:19:48;;;;;;;4.90;3.13;;;;;;;22.62;35.02;98334.16;5076242;28;20081;-45
2023/09/12 02:22:14;;;;;;;6.03;2.40;;;;;;;22.67;34.69;98341.31;5094535;28;20032;-45
2023/09/12 02:24:39;;;;;;;5.72;2.67;;;;;;;22.72;34.79;98341.25;5094436;28;20035;-45
2023/09/12 02:27:05;;;;;;;4.07;2.53;;;;;;;22.71;34.51;98347.69;5093126;28;20039;-45
2023/09/12 02:29:32;;;;;;;4.95;2.60;;;;;;;22.68;34.62;98345.59;5094405;28;20031;-45
2023/09/12 02:31:58;;;;;;;3.70;2.85;;;;;;;22.71;34.82;98347.69;5076287;28;20028;-45
2023/09/12 02:34:24;;;;;;;2.85;2.40;;;;;;;22.77;34.54;98351.09;5093001;28;20097;-45
2023/09/12 02:36:50;;;;;;;4.47;2.30;;;;;;;22.78;34.72;98345.47;5092863;28;20024;-45
2023/09/12 02:39:15;;;;;;;4.25;2.30;;;;;;;22.77;34.62;98349.19;5092944;28;20093;-45
2023/09/12 02:41:41;;;;;;;4.28;2.38;;;;;;;22.73;34.87;98342.84;5094016;28;20059;-45
2023/09/12 02:44:07;;;;;;;3.17;2.28;;;;;;;22.66;34.66;98340.53;5094135;28;20020;-45
2023/09/12 02:46:33;;;;;;;2.20;1.92;;;;;;;22.54;33.88;98343.63;5093919;28;20043;-45
2023/09/12 02:48:59;;;;;;;3.15;2.60;;;;;;;22.42;34.22;98345.13;5094022;28;20024;-45
2023/09/12 02:51:28;;;;;;;5.65;2.17;;;;;;;22.31;33.91;98347.91;5093888;28;20558;-45
2023/09/12 02:53:53;;;;;;;2.38;2.17;;;;;;;22.26;34.31;98349.84;5093939;28;20056;-46
2023/09/12 02:56:19;;;;;;;2.63;2.03;;;;;;;22.18;34.21;98345.13;5093850;28;20051;-45
2023/09/12 02:58:48;;;;;;;2.78;2.08;;;;;;;22.21;33.65;98339.97;5093821;28;20055;-45
2023/09/12 03:01:16;;;;;;;2.38;2.13;;;;;;;22.26;33.99;98336.50;5094025;28;20103;-45
2023/09/12 03:03:42;;;;;;;2.70;2.33;;;;;;;22.30;33.84;98334.84;5093642;28;20024;-45
2023/09/12 03:06:07;;;;;;;2.88;2.17;;;;;;;22.31;33.93;98333.75;5093647;28;20046;-45
2023/09/12 03:08:33;;;;;;;5.57;2.38;;;;;;;22.28;34.31;98323.63;5093641;28;20435;-45
2023/09/12 03:10:59;;;;;;;3.92;2.20;;;;;;;22.27;34.10;98338.06;5092208;28;20028;-45
2023/09/12 03:13:25;;;;;;;4.00;2.38;;;;;;;22.24;34.24;98334.09;5093506;28;20028;-45
2023/09/12 03:15:52;;;;;;;5.15;2.72;;;;;;;22.18;34.21;98329.06;5092134;28;20077;-45
2023/09/12 03:18:17;;;;;;;2.75;2.30;;;;;;;22.18;34.19;98332.53;5093212;28;20051;-45
2023/09/12 03:20:43;;;;;;;4.57;2.80;;;;;;;22.18;34.11;98340.56;5093620;28;20020;-45
2023/09/12 03:23:09;;;;;;;2.58;2.38;;;;;;;22.14;34.11;98344.88;5092026;28;20121;-45
2023/09/12 03:25:38;;;;;;;2.88;2.40;;;;;;;22.10;34.44;98347.31;5093214;28;20497;-45
2023/09/12 03:28:05;;;;;;;7.55;2.83;;;;;;;22.08;34.38;98346.00;5093303;28;20077;-45
2023/09/12 03:30:33;;;;;;;3.55;2.17;;;;;;;22.08;34.56;98346.81;5091714;28;20042;-45
2023/09/12 03:32:59;;;;;;;5.53;2.50;;;;;;;22.04;34.77;98351.13;5091858;28;20113;-45
2023/09/12 03:35:25;;;;;;;2.50;1.77;;;;;;;22.00;34.57;98360.78;5091783;28;20063;-45
2023/09/12 03:37:51;;;;;;;3.67;2.30;;;;;;;21.96;34.74;98359.75;5093101;28;20545;-45
2023/09/12 03:40:16;;;;;;;7.28;2.63;;;;;;;21.96;34.95;98350.97;5092990;28;20153;-45
2023/09/12 03:42:42;;;;;;;3.45;2.63;;;;;;;21.98;35.21;98352.25;5092986;28;20027;-45
2023/09/12 03:45:08;;;;;;;9.75;2.30;;;;;;;21.96;35.37;98351.75;5092902;28;20048;-45
2023/09/12 03:47:34;;;;;;;2.53;2.13;;;;;;;21.87;35.56;98354.25;5091563;28;20490;-45
2023/09/12 03:50:00;;;;;;;5.20;2.38;;;;;;;21.81;35.63;98350.03;5093095;28;20027;-45
2023/09/12 03:52:25;;;;;;;3.58;2.30;;;;;;;21.74;35.46;98353.03;5093148;28;20024;-45
2023/09/12 03:54:51;;;;;;;7.20;2.50;;;;;;;21.71;35.56;98356.28;5092718;28;20066;-45
2023/09/12 03:57:17;;;;;;;9.57;2.95;;;;;;;21.74;35.97;98358.34;5092739;28;20024;-45
2023/09/12 03:59:42;;;;;;;4.95;2.60;;;;;;;21.80;35.79;98355.66;5092184;28;20440;-45
2023/09/12 04:02:08;;;;;;;14.70;3.05;;;;;;;21.81;35.62;98355.38;5091317;28;20035;-45
2023/09/12 04:04:34;;;;;;;9.88;2.50;;;;;;;21.80;35.88;98342.28;5091591;28;20028;-45
2023/09/12 04:07:01;;;;;;;11.60;2.92;;;;;;;21.78;35.76;98347.91;5074304;28;20115;-45
2023/09/12 04:09:27;;;;;;;7.60;2.85;;;;;;;21.83;35.80;98350.56;5091183;28;20396;-45
2023/09/12 04:11:53;;;;;;;18.50;3.28;;;;;;;21.91;35.98;98349.94;5092635;28;20024;-45
2023/09/12 04:14:21;;;;;;;17.90;3.20;;;;;;;21.96;35.77;98359.75;5092390;28;20053;-45
2023/09/12 04:16:47;;;;;;;25.13;3.53;;;;;;;22.01;35.79;98353.56;5092317;28;20017;-45
2023/09/12 04:19:14;;;;;;;17.90;3.75;;;;;;;22.06;36.07;98356.19;5090802;28;20052;-45
2023/09/12 04:21:40;;;;;;;13.48;3.53;;;;;;;22.09;35.72;98359.09;5092459;28;20078;-45
2023/09/12 04:24:07;;;;;;;6.95;2.60;;;;;;;22.03;35.64;98354.06;5092225;28;20372;-45
2023/09/12 04:26:32;;;;;;;5.30;2.40;;;;;;;21.87;35.99;98356.09;5092135;28;20039;-45
2023/09/12 04:28:58;;;;;;;10.18;2.65;;;;;;;21.74;36.22;98350.34;5092144;28;20024;-45
2023/09/12 04:31:24;;;;;;;4.05;2.80;;;;;;;21.72;36.18;98354.38;5090720;28;20031;-45
2023/09/12 04:33:54;;;;;;;5.35;3.10;;;;;;;21.72;36.23;98352.50;5092119;28;20069;-45
2023/09/12 04:36:20;;;;;;;8.00;3.10;;;;;;;21.76;36.14;98354.63;5090729;28;20031;-45
2023/09/12 04:38:46;;;;;;;4.30;3.13;;;;;;;21.77;36.57;98357.00;5091999;28;20027;-45
2023/09/12 04:41:16;;;;;;;16.13;3.35;;;;;;;21.76;36.29;98350.06;5092019;28;20394;-45
2023/09/12 04:43:45;;;;;;;10.60;2.85;;;;;;;21.73;36.62;98339.94;5091062;28;20070;-45
2023/09/12 04:46:11;;;;;;;13.00;3.17;;;;;;;21.66;36.40;98345.63;5090654;28;20028;-45
2023/09/12 04:48:38;;;;;;;22.02;3.55;;;;;;;21.57;36.82;98352.66;5092166;28;20390;-45
2023/09/12 04:51:04;;;;;;;17.80;4.22;;;;;;;21.46;37.29;98351.13;5091777;28;20035;-45
2023/09/12 04:53:34;;;;;;;25.90;4.60;;;;;;;21.40;37.24;98352.22;5091863;28;20024;-45
2023/09/12 04:56:01;;;;;;;67.18;6.82;;;;;;;21.33;37.73;98358.69;5091850;28;20032;-45
2023/09/12 04:58:26;;;;;;;8.52;2.83;;;;;;;21.33;37.58;98357.91;5090510;28;20506;-45
2023/09/12 05:00:53;;;;;;;47.72;6.85;;;;;;;21.30;37.96;98356.56;5090486;28;20114;-45
2023/09/12 05:03:19;;;;;;;51.55;5.68;;;;;;;21.33;38.31;98358.69;5090406;28;20028;-45
2023/09/12 05:05:49;;;;;;;8.32;2.80;;;;;;;21.41;38.05;98359.16;5091765;28;20065;-45
2023/09/12 05:08:16;;;;;;;34.28;4.38;;;;;;;21.48;38.03;98362.34;5091697;28;20043;-45
2023/09/12 05:10:44;;;;;;;7.15;3.05;;;;;;;21.58;38.16;98366.78;5093105;28;20032;-45
2023/09/12 05:13:09;;;;;;;10.98;3.60;;;;;;;21.63;38.00;98367.56;5095906;28;20044;-45
2023/09/12 05:15:36;;;;;;;4.78;3.38;;;;;;;21.66;37.89;98356.31;5095789;28;20059;-45
2023/09/12 05:18:02;;;;;;;10.57;3.03;;;;;;;21.70;38.13;98360.00;5095563;28;20071;-45
2023/09/12 05:20:28;;;;;;;6.78;3.17;;;;;;;21.73;38.12;98358.63;5094366;28;20401;-45
2023/09/12 05:22:53;;;;;;;10.82;3.15;;;;;;;21.74;38.10;98358.34;5095661;28;20077;-45
2023/09/12 05:25:19;;;;;;;19.20;4.50;;;;;;;21.84;38.19;98370.03;5095568;28;20498;-45
2023/09/12 05:27:45;;;;;;;16.75;4.40;;;;;;;21.94;38.04;98372.59;5095601;28;20020;-45
2023/09/12 05:30:11;;;;;;;12.40;4.25;;;;;;;22.07;37.82;98358.59;5095491;28;20556;-45
2023/09/12 05:32:36;;;;;;;19.25;4.60;;;;;;;22.14;37.68;98367.03;5095438;28;20028;-45
2023/09/12 05:35:03;;;;;;;16.20;4.15;;;;;;;22.27;38.00;98364.81;5095413;28;20398;-45
2023/09/12 05:37:28;;;;;;;14.20;4.15;;;;;;;22.40;37.64;98364.13;5094072;28;20106;-45
2023/09/12 05:39:54;;;;;;;15.88;4.57;;;;;;;22.57;37.50;98373.56;5094068;28;20146;-45
2023/09/12 05:42:21;;;;;;;16.58;4.60;;;;;;;22.73;37.04;98366.91;5095262;28;20016;-45
2023/09/12 05:44:53;;;;;;;6.95;3.30;;;;;;;22.85;37.07;98367.28;5095153;28;20027;-45
2023/09/12 05:47:19;;;;;;;18.00;4.93;;;;;;;23.03;36.72;98367.63;5095225;28;20042;-45
2023/09/12 05:49:45;;;;;;;11.98;3.20;;;;;;;23.27;35.49;98371.00;5095148;28;20106;-45
2023/09/12 05:52:11;;;;;;;15.73;4.60;;;;;;;23.49;35.42;98370.38;5093730;28;20936;-45
2023/09/12 05:54:37;;;;;;;27.17;5.25;;;;;;;23.43;34.58;98368.09;5095048;28;20020;-45
2023/09/12 05:57:03;;;;;;;25.75;6.10;;;;;;;23.53;34.85;98373.28;5095036;28;20031;-45
2023/09/12 05:59:29;;;;;;;21.15;4.30;;;;;;;23.61;34.92;98382.53;5094932;28;20016;-45
2023/09/12 06:01:55;;;;;;;4.95;2.92;;;;;;;23.39;34.39;98391.19;5094894;28;20101;-45
2023/09/12 06:04:21;;;;;;;19.63;4.95;;;;;;;23.15;35.20;98399.31;5095109;28;20073;-45
2023/09/12 06:06:47;;;;;;;32.72;4.97;;;;;;;23.06;35.58;98412.53;5094774;28;20063;-45
2023/09/12 06:09:13;;;;;;;27.73;4.50;;;;;;;23.01;35.59;98399.19;5093720;28;20062;-45
2023/09/12 06:11:38;;;;;;;31.08;5.30;;;;;;;23.01;35.41;98404.56;5093325;28;20027;-45
2023/09/12 06:14:04;;;;;;;29.05;5.07;;;;;;;23.01;35.56;98408.03;5094757;28;20515;-45
2023/09/12 06:16:30;;;;;;;35.15;6.25;;;;;;;23.02;35.58;98408.84;5093264;28;20039;-45
2023/09/12 06:18:56;;;;;;;30.77;4.68;;;;;;;23.04;35.48;98406.66;5094393;28;20044;-45
2023/09/12 06:21:21;;;;;;;18.35;3.53;;;;;;;23.07;35.16;98408.78;5094057;28;20031;-45
2023/09/12 06:23:48;;;;;;;6.13;2.88;;;;;;;23.09;34.45;98401.25;5094527;28;20055;-45
2023/09/12 06:26:14;;;;;;;12.05;3.47;;;;;;;23.10;34.64;98411.69;5094403;28;20091;-45
2023/09/12 06:28:40;;;;;;;4.97;2.60;;;;;;;23.15;34.55;98401.97;5094429;28;20051;-45
2023/09/12 06:31:09;;;;;;;6.97;2.67;;;;;;;23.16;34.21;98401.69;5094548;28;20442;-45
2023/09/12 06:33:35;;;;;;;3.75;2.30;;;;;;;23.18;33.83;98415.59;5093014;28;20036;-45
2023/09/12 06:36:00;;;;;;;6.55;2.42;;;;;;;23.17;34.00;98408.63;5094259;28;20165;-45
2023/09/12 06:38:26;;;;;;;2.33;1.80;;;;;;;23.21;33.25;98414.22;5094197;28;20051;-45
2023/09/12 06:40:52;;;;;;;5.80;2.47;;;;;;;23.23;33.34;98415.50;5092858;28;20027;-45
2023/09/12 06:43:17;;;;;;;3.53;2.20;;;;;;;23.27;33.49;98423.75;5094108;28;20493;-45
2023/09/12 06:45:43;;;;;;;3.03;2.08;;;;;;;23.31;33.56;98420.19;5094094;28;20020;-45
2023/09/12 06:48:09;;;;;;;8.15;2.60;;;;;;;23.40;33.62;98432.94;5093996;28;20023;-45
2023/09/12 06:50:37;;;;;;;4.97;2.50;;;;;;;23.45;33.72;98422.94;5092599;28;20028;-45
2023/09/12 06:53:06;;;;;;;3.25;2.13;;;;;;;23.50;33.23;98424.75;5092638;28;20543;-45
2023/09/12 06:55:32;;;;;;;3.90;2.40;;;;;;;23.53;32.95;98424.97;5076200;28;20070;-45
2023/09/12 06:57:58;;;;;;;3.35;1.83;;;;;;;23.59;32.21;98428.38;5093821;28;20043;-45
2023/09/12 07:00:24;;;;;;;3.40;1.73;;;;;;;23.53;32.23;98422.28;5092494;28;20020;-45
2023/09/12 07:02:50;;;;;;;2.60;2.17;;;;;;;23.48;32.47;98425.06;5093755;28;20052;-45
2023/09/12 07:05:15;;;;;;;3.47;1.67;;;;;;;23.50;32.72;98428.25;5093679;28;20140;-45
2023/09/12 07:07:41;;;;;;;2.42;1.90;;;;;;;23.50;32.46;98432.78;5093704;28;20021;-45
2023/09/12 07:10:07;;;;;;;6.10;1.95;;;;;;;23.48;32.50;98445.66;5093832;28;20024;-45
2023/09/12 07:12:34;;;;;;;5.93;2.20;;;;;;;23.44;32.86;98444.66;5093550;28;20054;-45
2023/09/12 07:14:59;;;;;;;3.90;2.33;;;;;;;23.49;33.07;98439.25;5093553;28;20493;-45
2023/09/12 07:17:27;;;;;;;3.25;1.95;;;;;;;23.61;32.84;98455.66;5092105;28;20027;-45
2023/09/12 07:19:53;;;;;;;11.43;2.40;;;;;;;23.62;33.03;98457.22;5093273;28;20079;-45
2023/09/12 07:22:19;;;;;;;4.97;1.65;;;;;;;23.60;32.85;98462.09;5093339;28;20055;-45
2023/09/12 07:24:44;;;;;;;7.68;2.42;;;;;;;23.61;33.22;98460.22;5093359;28;20039;-45
2023/09/12 07:27:10;;;;;;;19.90;3.50;;;;;;;23.72;33.53;98461.63;5091918;28;20032;-45
2023/09/12 07:29:35;;;;;;;5.93;2.38;;;;;;;23.89;33.05;98461.16;5093296;28;20420;-45
2023/09/12 07:32:01;;;;;;;2.78;2.03;;;;;;;24.44;32.47;98463.94;5093147;28;20016;-45
2023/09/12 07:34:27;;;;;;;51.03;5.03;;;;;;;25.59;31.07;98464.00;5092290;28;20024;-45
2023/09/12 07:36:53;;;;;;;7.28;1.92;;;;;;;26.19;29.65;98449.41;5093141;28;20024;-45
2023/09/12 07:39:19;;;;;;;6.43;2.28;;;;;;;26.08;29.29;98452.34;5091694;28;20512;-45
2023/09/12 07:41:45;;;;;;;12.48;2.85;;;;;;;26.03;29.79;98447.09;5093007;28;20060;-45
2023/09/12 07:44:15;;;;;;;8.30;2.47;;;;;;;25.93;29.75;98455.41;5091602;28;20085;-45
2023/09/12 07:46:41;;;;;;;11.60;2.47;;;;;;;25.67;30.35;98461.38;5092962;28;20045;-45
2023/09/12 07:49:09;;;;;;;3.40;1.90;;;;;;;25.36;31.01;98453.25;5091560;28;20381;-45
2023/09/12 07:51:35;;;;;;;3.05;2.20;;;;;;;25.08;31.37;98468.59;5093294;28;20038;-45
2023/09/12 07:54:01;;;;;;;11.40;2.75;;;;;;;25.01;31.44;98462.84;5092742;28;20027;-45
2023/09/12 07:56:27;;;;;;;5.65;2.45;;;;;;;25.02;31.78;98467.13;5092594;28;20038;-45
2023/09/12 07:58:53;;;;;;;7.05;2.83;;;;;;;24.91;32.25;98466.53;5092718;28;20110;-45
2023/09/12 08:01:19;;;;;;;5.45;1.85;;;;;;;24.86;32.14;98461.28;5092578;28;20028;-45
2023/09/12 08:03:44;;;;;;;4.90;1.65;;;;;;;24.86;32.13;98472.81;5091621;28;20489;-45
2023/09/12 08:06:10;;;;;;;20.25;3.33;;;;;;;25.25;32.51;98468.81;5092542;28;20020;-45
2023/09/12 08:08:36;;;;;;;6.03;2.20;;;;;;;25.84;31.73;98473.38;5092502;28;20385;-45
2023/09/12 08:11:01;;;;;;;10.52;2.78;;;;;;;26.29;30.97;98473.34;5092268;28;20042;-45
2023/09/12 08:13:29;;;;;;;5.38;1.88;;;;;;;27.26;29.31;98476.06;5092273;28;20032;-45
2023/09/12 08:15:55;;;;;;;9.82;2.33;;;;;;;27.24;28.91;98477.47;5092247;28;20028;-45
2023/09/12 08:18:21;;;;;;;6.38;2.10;;;;;;;27.27;29.25;98479.56;5092253;28;20043;-45
2023/09/12 08:20:47;;;;;;;22.92;4.55;;;;;;;27.30;28.92;98477.00;5090986;28;20020;-45
2023/09/12 08:23:13;;;;;;;5.32;1.90;;;;;;;27.18;28.89;98487.59;5092215;28;20024;-46
2023/09/12 08:25:39;;;;;;;37.17;5.07;;;;;;;27.19;28.86;98489.19;5092154;28;20136;-45
2023/09/12 08:28:05;;;;;;;11.48;3.25;;;;;;;27.34;28.94;98490.66;5090829;28;20397;-46
2023/09/12 08:30:32;;;;;;;27.05;3.30;;;;;;;27.90;28.19;98493.53;5091974;28;20081;-45
2023/09/12 08:32:58;;;;;;;10.45;2.22;;;;;;;28.33;28.24;98489.91;5091971;28;20028;-46
2023/09/12 08:35:26;;;;;;;36.25;6.13;;;;;;;29.54;26.97;98485.03;5090721;28;20020;-46
2023/09/12 08:37:51;;;;;;;9.02;2.00;;;;;;;31.40;24.83;98478.72;5091985;28;20020;-46
2023/09/12 08:40:17;;;;;;;5.25;1.88;;;;;;;33.14;22.88;98477.31;5091959;28;20449;-46
2023/09/12 08:42:44;;;;;;;4.53;1.88;;;;;;;34.20;20.88;98477.09;5090996;28;20056;-46
2023/09/12 08:45:18;;;;;;;4.65;1.83;;;;;;;35.16;20.36;98474.31;5090544;28;20118;-46
2023/09/12 08:47:46;;;;;;;3.63;1.80;;;;;;;35.85;19.17;98465.75;5091973;28;20489;-46
2023/09/12 08:50:14;;;;;;;30.42;3.20;;;;;;;36.62;18.77;98462.53;5091786;28;20028;-46
2023/09/12 08:52:41;;;;;;;4.63;1.45;;;;;;;37.42;17.64;98459.88;5092208;28;20047;-46
2023/09/12 08:55:08;;;;;;;6.00;1.73;;;;;;;36.50;17.94;98466.34;5091899;28;20020;-46
2023/09/12 08:57:38;;;;;;;4.47;1.95;;;;;;;35.00;19.37;98464.31;5091909;28;20024;-46
2023/09/12 09:00:12;;;;;;;3.90;1.90;;;;;;;34.81;20.01;98462.50;5090440;28;20032;-46
2023/09/12 09:02:39;;;;;;;5.22;1.92;;;;;;;34.60;20.31;98464.88;5090667;28;20096;-46
2023/09/12 09:05:10;;;;;;;39.45;6.32;;;;;;;34.51;20.62;98458.88;5090474;28;20091;-46
2023/09/12 09:07:37;;;;;;;4.80;1.52;;;;;;;34.91;20.28;98458.34;5091814;28;20024;-46
2023/09/12 09:10:05;;;;;;;6.78;1.63;;;;;;;35.27;19.97;98458.06;5090268;28;20027;-46
2023/09/12 09:12:32;;;;;;;5.40;1.50;;;;;;;35.30;19.84;98452.66;5091663;28;20028;-46
2023/09/12 09:14:58;;;;;;;21.95;3.75;;;;;;;35.50;20.04;98461.47;5091633;28;20020;-46
2023/09/12 09:17:23;;;;;;;22.00;3.00;;;;;;;35.68;20.07;98452.69;5091519;28;20584;-46
2023/09/12 09:19:49;;;;;;;14.88;2.70;;;;;;;35.89;20.00;98460.34;5090162;28;20102;-46
2023/09/12 09:22:15;;;;;;;10.43;2.00;;;;;;;36.16;19.95;98461.00;5091539;28;20042;-46
2023/09/12 09:24:41;;;;;;;9.52;2.70;;;;;;;36.73;19.71;98457.94;5091475;28;20028;-46
2023/09/12 09:27:07;;;;;;;53.00;6.55;;;;;;;37.29;19.22;98456.69;5091552;28;20490;-46
2023/09/12 09:29:48;;;;;;;9.80;2.38;;;;;;;37.85;18.95;98451.78;5090208;28;20024;-46
2023/09/12 09:32:21;;;;;;;18.67;3.00;;;;;;;38.73;18.17;98446.72;5091385;28;20028;-46
2023/09/12 09:34:47;;;;;;;;;;;;;;;39.62;18.03;98447.56;5091908;28;20035;-46
2023/09/12 09:37:15;;;;;;;32.47;5.00;;;;;;;39.86;17.19;98440.38;5090113;28;19911;-46
2023/09/12 09:39:41;;;;;;;24.52;4.30;;;;;;;40.08;17.10;98442.97;5090139;28;20107;-46
2023/09/12 09:42:11;;;;;;;9.05;2.08;;;;;;;40.39;16.98;98435.69;5091395;28;20111;-46
2023/09/12 09:44:37;;;;;;;4.82;2.00;;;;;;;40.54;16.48;98447.31;5091423;28;20107;-47
2023/09/12 09:47:03;;;;;;;15.90;3.03;;;;;;;40.56;16.78;98444.94;5091358;28;20367;-46
2023/09/12 09:49:34;;;;;;;29.90;4.63;;;;;;;40.37;16.86;98442.75;5091340;28;20030;-46
2023/09/12 09:52:02;;;;;;;30.20;5.80;;;;;;;40.84;16.48;98432.88;5091493;28;20029;-46
2023/09/12 09:54:28;;;;;;;7.45;2.38;;;;;;;40.82;16.25;98435.25;5091349;28;20783;-47
2023/09/12 09:56:57;;;;;;;7.80;2.22;;;;;;;40.34;16.29;98425.09;5092855;28;20020;-47
2023/09/12 09:59:27;;;;;;;8.00;2.65;;;;;;;40.01;17.05;98430.09;5093698;28;20024;-47
2023/09/12 10:01:57;;;;;;;10.48;2.78;;;;;;;40.32;16.77;98431.00;5094930;28;20485;-46
2023/09/12 10:04:26;;;;;;;44.95;4.50;;;;;;;40.70;17.06;98433.00;5093573;28;20393;-47
2023/09/12 10:06:58;;;;;;;4.15;2.50;;;;;;;40.45;16.64;98427.78;5094796;28;20023;-47
2023/09/12 10:09:26;;;;;;;10.30;3.03;;;;;;;39.91;17.16;98428.19;5094862;28;20028;-46
2023/09/12 10:11:54;;;;;;;2.97;1.92;;;;;;;40.06;16.57;98429.63;5094640;28;20048;-47
2023/09/12 10:14:22;;;;;;;5.45;2.45;;;;;;;39.57;15.92;98436.25;5094760;28;20390;-47
2023/09/12 10:16:51;;;;;;;6.10;2.58;;;;;;;38.12;17.16;98446.75;5094655;28;20024;-46
2023/09/12 10:19:29;;;;;;;4.07;2.38;;;;;;;37.35;17.76;98437.97;5094293;28;20048;-46
2023/09/12 10:22:14;;;;;;;2.90;2.17;;;;;;;37.53;17.96;98422.34;5094824;28;20100;-47
2023/09/12 10:24:42;;;;;;;7.57;2.38;;;;;;;37.76;18.53;98430.25;5094499;28;20133;-47
2023/09/12 10:27:09;;;;;;;13.23;2.67;;;;;;;38.24;17.70;98418.16;5094339;28;20024;-47
2023/09/12 10:29:35;;;;;;;3.35;2.22;;;;;;;38.03;17.84;98429.88;5094445;28;20027;-47
2023/09/12 10:32:01;;;;;;;17.45;3.58;;;;;;;38.33;18.10;98428.72;5094304;28;20061;-46
2023/09/12 10:34:30;;;;;;;3.38;2.40;;;;;;;38.92;17.44;98429.03;5093055;28;20067;-46
2023/09/12 10:36:59;;;;;;;8.15;2.22;;;;;;;38.85;17.31;98422.78;5093241;28;20028;-46
2023/09/12 10:39:27;;;;;;;2.33;1.90;;;;;;;38.79;17.72;98424.38;5094244;28;20477;-46
2023/09/12 10:41:54;;;;;;;3.30;2.00;;;;;;;38.89;17.74;98424.31;5094181;28;20434;-47
2023/09/12 10:44:21;;;;;;;4.45;1.98;;;;;;;39.34;17.76;98419.09;5094176;28;20401;-47
2023/09/12 10:46:49;;;;;;;2.42;1.90;;;;;;;39.51;17.08;98402.94;5094028;28;20016;-46
2023/09/12 10:49:15;;;;;;;20.63;3.00;;;;;;;38.83;17.07;98414.94;5094083;28;20028;-46
2023/09/12 10:51:42;;;;;;;10.55;2.33;;;;;;;37.97;17.29;98424.03;5093903;28;20027;-46
2023/09/12 10:54:09;;;;;;;5.20;1.90;;;;;;;37.16;17.94;98434.34;5093942;28;20074;-46
2023/09/12 10:56:35;;;;;;;8.90;2.17;;;;;;;36.63;18.51;98432.09;5093890;28;20424;-46
2023/09/12 10:59:06;;;;;;;2.35;2.00;;;;;;;36.43;19.27;98428.81;5093832;28;20028;-46
2023/09/12 11:01:36;;;;;;;14.07;2.50;;;;;;;36.36;18.65;98426.00;5093808;28;20032;-46
2023/09/12 11:04:20;;;;;;;3.72;1.75;;;;;;;35.74;19.72;98432.88;5092509;28;20055;-46
2023/09/12 11:06:50;;;;;;;2.22;1.83;;;;;;;35.48;20.09;98419.34;5092408;28;20028;-46
2023/09/12 11:09:16;;;;;;;7.75;1.83;;;;;;;35.37;20.36;98432.84;5092393;28;20028;-46
2023/09/12 11:11:43;;;;;;;3.17;1.75;;;;;;;35.47;20.29;98421.25;5093451;28;20063;-46
2023/09/12 11:14:09;;;;;;;4.40;1.80;;;;;;;35.79;19.92;98435.25;5093550;28;20074;-46
2023/09/12 11:16:35;;;;;;;6.55;2.45;;;;;;;35.69;19.96;98426.97;5093513;28;20036;-46
2023/09/12 11:19:22;;;;;;;3.47;2.03;;;;;;;35.68;20.00;98419.94;5075103;28;20468;-46
2023/09/12 11:21:53;;;;;;;4.55;1.90;;;;;;;35.50;20.31;98423.25;5093368;28;20367;-46
2023/09/12 11:24:20;;;;;;;4.30;2.00;;;;;;;35.47;20.46;98420.47;5092052;28;20036;-46
2023/09/12 11:27:07;;;;;;;3.70;2.00;;;;;;;35.72;20.49;98420.78;5091936;28;20438;-46
2023/09/12 11:29:39;;;;;;;5.63;1.80;;;;;;;35.65;20.42;98426.13;5093269;28;20027;-46
2023/09/12 11:32:06;;;;;;;6.22;1.90;;;;;;;35.31;19.96;98407.81;5091790;28;20115;-46